createdAt,value
2022-12-04T00:01:29.246Z,33.08
2022-12-04T00:04:03.997Z,33.03
2022-12-04T00:06:35.381Z,34.42
2022-12-04T00:09:05.782Z,31.83
2022-12-04T00:11:35.925Z,33.38
2022-12-04T00:14:07.450Z,34.35
2022-12-04T00:16:36.513Z,33.63
2022-12-04T00:19:08.281Z,32.35
2022-12-04T00:21:37.498Z,32.55
2022-12-04T00:24:07.707Z,34.25
2022-12-04T00:26:38.646Z,32.92
2022-12-04T00:29:09.799Z,32.92
2022-12-04T00:31:38.414Z,34.22
2022-12-04T00:34:09.037Z,33.53
2022-12-04T00:36:38.090Z,33.08
2022-12-04T00:39:08.704Z,34.67
2022-12-04T00:41:38.140Z,32.63
2022-12-04T00:44:07.111Z,35.40
2022-12-04T00:46:37.107Z,34.75
2022-12-04T00:49:07.650Z,33.42
2022-12-04T00:51:36.680Z,35.13
2022-12-04T00:54:06.381Z,33.03
2022-12-04T00:56:35.228Z,34.22
2022-12-04T00:59:04.491Z,34.42
2022-12-04T01:01:33.103Z,33.53
2022-12-04T01:04:02.310Z,35.25
2022-12-04T01:06:36.627Z,35.08
2022-12-04T01:09:07.563Z,32.83
2022-12-04T01:11:37.028Z,33.00
2022-12-04T01:14:06.479Z,35.15
2022-12-04T01:16:38.678Z,34.20
2022-12-04T01:19:13.297Z,34.10
2022-12-04T01:21:44.549Z,35.63
2022-12-04T01:24:13.498Z,34.25
2022-12-04T01:26:42.487Z,32.42
2022-12-04T01:29:11.309Z,34.35
2022-12-04T01:31:40.499Z,34.35
2022-12-04T01:34:12.439Z,33.70
2022-12-04T01:36:44.934Z,33.15
2022-12-04T01:39:13.351Z,35.45
2022-12-04T01:41:42.681Z,33.75
2022-12-04T01:44:16.619Z,33.88
2022-12-04T01:46:47.255Z,34.08
2022-12-04T01:49:20.427Z,31.63
2022-12-04T01:51:56.592Z,32.80
2022-12-04T01:54:29.593Z,33.03
2022-12-04T01:57:04.970Z,32.67
2022-12-04T01:59:41.508Z,34.25
2022-12-04T02:02:14.490Z,32.42
2022-12-04T02:04:46.300Z,33.58
2022-12-04T02:07:16.260Z,33.38
2022-12-04T02:09:46.027Z,32.83
2022-12-04T02:12:24.152Z,32.83
2022-12-04T02:15:06.999Z,32.40
2022-12-04T02:17:46.908Z,32.38
2022-12-04T02:20:27.071Z,32.40
2022-12-04T02:23:35.696Z,33.67
2022-12-04T02:26:27.949Z,32.40
2022-12-04T02:29:04.205Z,34.38
2022-12-04T02:31:42.123Z,31.70
2022-12-04T02:34:28.380Z,33.00
2022-12-04T02:37:02.146Z,34.25
2022-12-04T02:39:41.556Z,32.95
2022-12-04T02:42:16.253Z,34.35
2022-12-04T02:44:55.280Z,32.38
2022-12-04T02:47:26.846Z,34.25
2022-12-04T02:50:01.156Z,34.20
2022-12-04T02:52:35.563Z,34.28
2022-12-04T02:55:11.114Z,33.53
2022-12-04T02:57:47.364Z,33.97
2022-12-04T03:00:20.172Z,35.10
2022-12-04T03:02:55.869Z,34.92
2022-12-04T03:05:30.204Z,35.67
2022-12-04T03:08:07.802Z,33.92
2022-12-04T03:10:44.475Z,34.65
2022-12-04T03:13:20.568Z,34.67
2022-12-04T03:15:56.929Z,34.30
2022-12-04T03:18:31.583Z,35.45
2022-12-04T03:21:05.729Z,36.00
2022-12-04T03:23:39.137Z,35.15
2022-12-04T03:26:17.236Z,37.00
2022-12-04T03:28:54.624Z,34.85
2022-12-04T03:31:37.921Z,35.28
2022-12-04T03:34:09.452Z,35.15
2022-12-04T03:36:46.321Z,36.08
2022-12-04T03:39:22.340Z,35.40
2022-12-04T03:42:02.203Z,35.38
2022-12-04T03:44:40.599Z,34.72
2022-12-04T03:47:17.328Z,37.20
2022-12-04T03:49:57.258Z,36.88
2022-12-04T03:52:34.855Z,36.88
2022-12-04T03:55:08.581Z,35.75
2022-12-04T03:57:42.527Z,37.63
2022-12-04T04:00:16.402Z,35.80
2022-12-04T04:02:52.205Z,36.70
2022-12-04T04:05:22.433Z,36.78
2022-12-04T04:07:56.385Z,35.80
2022-12-04T04:10:27.923Z,36.28
2022-12-04T04:13:19.899Z,37.30
2022-12-04T04:16:11.434Z,36.88
2022-12-04T04:19:02.050Z,35.33
2022-12-04T04:21:56.368Z,36.25
2022-12-04T04:24:36.666Z,37.40
2022-12-04T04:27:07.389Z,38.58
2022-12-04T04:29:38.260Z,36.17
2022-12-04T04:32:13.996Z,37.40
2022-12-04T04:34:52.352Z,36.72
2022-12-04T04:37:33.667Z,36.15
2022-12-04T04:40:11.364Z,36.92
2022-12-04T04:42:47.895Z,37.10
2022-12-04T04:45:22.831Z,38.05
2022-12-04T04:47:56.628Z,38.50
2022-12-04T04:50:27.430Z,35.30
2022-12-04T04:53:03.119Z,38.10
2022-12-04T04:55:34.901Z,36.78
2022-12-04T04:58:17.428Z,36.83
2022-12-04T05:00:58.211Z,38.40
2022-12-04T05:03:27.502Z,38.03
2022-12-04T05:05:59.168Z,37.78
2022-12-04T05:08:29.830Z,37.42
2022-12-04T05:10:58.965Z,37.60
2022-12-04T05:13:31.607Z,39.50
2022-12-04T05:16:02.416Z,38.72
2022-12-04T05:18:34.912Z,38.97
2022-12-04T05:21:08.118Z,37.72
2022-12-04T05:23:36.935Z,39.25
2022-12-04T05:26:07.690Z,37.85
2022-12-04T05:28:36.719Z,38.70
2022-12-04T05:31:06.109Z,38.17
2022-12-04T05:33:34.884Z,38.83
2022-12-04T05:36:06.317Z,38.15
2022-12-04T05:38:39.075Z,39.92
2022-12-04T05:41:15.616Z,39.58
2022-12-04T05:43:47.164Z,38.25
2022-12-04T05:46:17.602Z,39.17
2022-12-04T05:48:47.232Z,38.15
2022-12-04T05:51:15.903Z,40.13
2022-12-04T05:53:46.455Z,36.30
2022-12-04T05:56:25.030Z,37.75
2022-12-04T05:59:01.702Z,39.60
2022-12-04T06:01:35.131Z,37.67
2022-12-04T06:04:07.731Z,40.53
2022-12-04T06:06:41.272Z,40.40
2022-12-04T06:09:15.021Z,38.97
2022-12-04T06:11:45.219Z,40.25
2022-12-04T06:14:25.118Z,39.38
2022-12-04T06:16:56.569Z,40.15
2022-12-04T06:19:26.664Z,40.90
2022-12-04T06:21:56.571Z,38.58
2022-12-04T06:24:28.729Z,40.25
2022-12-04T06:27:29.424Z,39.35
2022-12-04T06:30:01.666Z,38.45
2022-12-04T06:32:32.456Z,39.78
2022-12-04T06:35:03.013Z,38.15
2022-12-04T06:37:32.459Z,40.45
2022-12-04T06:40:03.422Z,40.47
2022-12-04T06:42:33.066Z,38.33
2022-12-04T06:45:04.178Z,39.60
2022-12-04T06:47:33.486Z,38.40
2022-12-04T06:50:04.688Z,40.17
2022-12-04T06:52:35.074Z,38.60
2022-12-04T06:55:06.202Z,39.20
2022-12-04T06:57:38.497Z,38.90
2022-12-04T07:00:10.348Z,39.08
2022-12-04T07:02:42.162Z,40.92
2022-12-04T07:05:12.904Z,39.22
2022-12-04T07:07:42.385Z,39.58
2022-12-04T07:10:15.453Z,38.72
2022-12-04T07:12:45.778Z,39.95
2022-12-04T07:15:16.659Z,39.00
2022-12-04T07:17:45.672Z,37.55
2022-12-04T07:20:17.219Z,38.38
2022-12-04T07:23:14.403Z,39.55
2022-12-04T07:25:48.060Z,37.60
2022-12-04T07:28:25.866Z,39.33
2022-12-04T07:30:57.924Z,38.35
2022-12-04T07:33:26.521Z,37.88
2022-12-04T07:35:58.761Z,37.67
2022-12-04T07:38:28.518Z,38.72
2022-12-04T07:41:00.611Z,39.05
2022-12-04T07:43:32.532Z,38.22
2022-12-04T07:46:07.508Z,39.45
2022-12-04T07:48:36.318Z,38.85
2022-12-04T07:51:06.918Z,38.42
2022-12-04T07:53:36.895Z,39.35
2022-12-04T07:56:08.760Z,39.08
2022-12-04T07:58:37.860Z,37.85
2022-12-04T08:01:11.177Z,38.88
2022-12-04T08:03:46.862Z,38.03
2022-12-04T08:06:19.652Z,38.85
2022-12-04T08:08:50.899Z,38.58
2022-12-04T08:11:25.148Z,38.42
2022-12-04T08:13:56.292Z,37.63
2022-12-04T08:16:26.517Z,41.13
2022-12-04T08:18:57.063Z,39.03
2022-12-04T08:21:29.016Z,39.30
2022-12-04T08:23:59.923Z,38.60
2022-12-04T08:26:34.000Z,39.72
2022-12-04T08:29:04.592Z,37.60
2022-12-04T08:31:36.380Z,38.15
2022-12-04T08:34:07.678Z,38.72
2022-12-04T08:36:36.997Z,37.75
2022-12-04T08:39:06.352Z,41.05
2022-12-04T08:41:38.298Z,38.30
2022-12-04T08:44:10.257Z,38.15
2022-12-04T08:46:40.555Z,38.05
2022-12-04T08:49:09.612Z,38.13
2022-12-04T08:51:38.541Z,38.95
2022-12-04T08:54:10.251Z,37.92
2022-12-04T08:56:43.896Z,36.67
2022-12-04T08:59:15.002Z,36.78
2022-12-04T09:01:47.221Z,36.95
2022-12-04T09:04:15.979Z,38.13
2022-12-04T09:06:44.819Z,36.88
2022-12-04T09:09:16.667Z,37.92
2022-12-04T09:11:48.375Z,36.05
2022-12-04T09:14:25.884Z,38.30
2022-12-04T09:16:55.003Z,41.28
2022-12-04T09:19:23.406Z,38.15
2022-12-04T09:21:52.296Z,36.72
2022-12-04T09:24:23.889Z,36.20
2022-12-04T09:26:54.729Z,37.03
2022-12-04T09:29:26.366Z,36.22
2022-12-04T09:31:55.520Z,36.65
2022-12-04T09:34:24.240Z,35.20
2022-12-04T09:36:53.624Z,36.40
2022-12-04T09:39:22.390Z,35.78
2022-12-04T09:42:13.222Z,35.28
2022-12-04T09:44:47.163Z,34.38
2022-12-04T09:47:24.520Z,34.75
2022-12-04T09:49:58.773Z,33.35
2022-12-04T09:52:47.817Z,35.72
2022-12-04T09:55:24.171Z,34.00
2022-12-04T09:58:02.135Z,34.25
2022-12-04T10:00:33.971Z,32.70
2022-12-04T10:03:07.004Z,34.03
2022-12-04T10:05:51.834Z,32.33
2022-12-04T10:08:24.977Z,34.03
2022-12-04T10:11:10.504Z,32.83
2022-12-04T10:16:57.469Z,29.45
2022-12-04T10:19:36.325Z,33.20
2022-12-04T10:22:15.459Z,31.27
2022-12-04T10:24:50.839Z,30.05
2022-12-04T10:27:25.963Z,28.77
2022-12-04T10:30:02.508Z,30.73
2022-12-04T10:32:34.935Z,30.38
2022-12-04T10:35:19.671Z,28.10
2022-12-04T10:37:52.596Z,27.67
2022-12-04T10:40:28.171Z,26.63
2022-12-04T10:43:04.332Z,27.15
2022-12-04T10:45:35.583Z,26.08
2022-12-04T10:48:04.708Z,25.55
2022-12-04T10:50:34.212Z,24.83
2022-12-04T10:53:03.977Z,24.83
2022-12-04T10:55:40.502Z,25.42
2022-12-04T10:58:19.102Z,25.15
2022-12-04T11:01:18.473Z,25.13
2022-12-04T11:03:56.345Z,23.95
2022-12-04T11:06:28.347Z,22.08
2022-12-04T11:08:58.225Z,24.75
2022-12-04T11:11:31.591Z,22.17
2022-12-04T11:14:08.776Z,22.50
2022-12-04T11:16:44.603Z,21.85
2022-12-04T11:19:26.220Z,20.85
2022-12-04T11:21:58.066Z,20.95
2022-12-04T11:24:32.084Z,19.58
2022-12-04T11:27:01.549Z,18.17
2022-12-04T11:29:34.992Z,18.25
2022-12-04T11:32:08.278Z,18.90
2022-12-04T11:34:41.711Z,19.00
2022-12-04T11:37:23.833Z,18.00
2022-12-04T11:39:55.807Z,18.60
2022-12-04T11:42:28.165Z,18.75
2022-12-04T11:45:01.128Z,17.55
2022-12-04T11:47:35.866Z,17.95
2022-12-04T11:50:24.812Z,16.17
2022-12-04T11:53:11.587Z,17.30
2022-12-04T11:55:54.499Z,16.52
2022-12-04T11:58:50.316Z,17.23
2022-12-04T12:01:35.583Z,15.93
2022-12-04T12:04:46.836Z,15.63
2022-12-04T12:07:41.954Z,15.48
2022-12-04T12:10:20.716Z,16.27
2022-12-04T12:13:05.425Z,16.00
2022-12-04T12:15:52.194Z,16.63
2022-12-04T12:18:43.300Z,16.20
2022-12-04T12:21:25.396Z,16.27
2022-12-04T12:24:25.240Z,16.30
2022-12-04T12:27:10.339Z,16.70
2022-12-04T12:29:58.360Z,16.02
2022-12-04T12:33:11.032Z,16.05
2022-12-04T12:35:47.476Z,15.13
2022-12-04T12:38:23.778Z,16.15
2022-12-04T12:41:02.049Z,16.42
2022-12-04T12:43:34.700Z,16.42
2022-12-04T12:46:13.855Z,15.02
2022-12-04T12:48:56.539Z,15.85
2022-12-04T12:51:37.960Z,15.10
2022-12-04T12:54:24.734Z,16.08
2022-12-04T12:57:03.035Z,15.93
2022-12-04T12:59:34.149Z,15.98
2022-12-04T13:02:12.790Z,18.45
2022-12-04T13:04:46.146Z,18.30
2022-12-04T13:07:35.889Z,19.08
2022-12-04T13:10:20.393Z,18.13
2022-12-04T13:13:00.116Z,20.30
2022-12-04T13:15:40.366Z,20.52
2022-12-04T13:18:27.726Z,21.70
2022-12-04T13:21:06.610Z,20.73
2022-12-04T13:23:52.308Z,22.08
2022-12-04T13:26:49.049Z,21.88
2022-12-04T13:29:51.862Z,21.88
2022-12-04T13:32:46.918Z,23.05
2022-12-04T13:35:29.960Z,22.77
2022-12-04T13:38:17.733Z,25.45
2022-12-04T13:40:54.955Z,23.63
2022-12-04T13:43:35.178Z,24.85
2022-12-04T13:46:08.747Z,26.75
2022-12-04T13:48:42.571Z,26.60
2022-12-04T13:51:37.853Z,27.55
2022-12-04T13:54:28.004Z,26.85
2022-12-04T13:57:11.490Z,26.98
2022-12-04T13:59:43.403Z,26.83
2022-12-04T14:02:35.882Z,29.20
2022-12-04T14:05:09.185Z,29.17
2022-12-04T14:07:40.450Z,30.98
2022-12-04T14:10:28.879Z,30.38
2022-12-04T14:13:08.683Z,29.92
2022-12-04T14:15:43.173Z,30.02
2022-12-04T14:18:29.364Z,30.98
2022-12-04T14:21:06.199Z,31.08
2022-12-04T14:23:41.989Z,30.35
2022-12-04T14:26:37.337Z,31.52
2022-12-04T14:29:42.378Z,30.13
2022-12-04T14:32:18.708Z,29.98
2022-12-04T14:34:50.929Z,30.45
2022-12-04T14:37:29.433Z,30.52
2022-12-04T14:39:59.353Z,30.20
2022-12-04T14:42:38.970Z,30.20
2022-12-04T14:45:23.262Z,30.15
2022-12-04T14:48:17.191Z,30.65
2022-12-04T14:50:55.152Z,30.48
2022-12-04T14:53:37.400Z,30.75
2022-12-04T14:56:45.064Z,31.40
2022-12-04T14:59:21.437Z,28.67
2022-12-04T15:01:54.384Z,28.70
2022-12-04T15:04:30.371Z,29.73
2022-12-04T15:07:03.158Z,30.23
2022-12-04T15:09:52.354Z,29.83
2022-12-04T15:12:37.285Z,29.35
2022-12-04T15:15:27.335Z,29.33
2022-12-04T15:18:02.995Z,29.88
2022-12-04T15:20:40.073Z,27.58
2022-12-04T15:23:14.374Z,29.50
2022-12-04T15:25:49.905Z,28.67
2022-12-04T15:28:22.844Z,28.95
2022-12-04T15:30:54.309Z,29.02
2022-12-04T15:33:27.752Z,28.02
2022-12-04T15:36:05.561Z,27.77
2022-12-04T15:38:38.996Z,26.95
2022-12-04T15:41:10.954Z,27.98
2022-12-04T15:43:44.116Z,27.83
2022-12-04T15:46:23.365Z,27.80
2022-12-04T15:48:54.767Z,27.05
2022-12-04T15:51:45.814Z,27.33
2022-12-04T15:54:40.576Z,26.83
2022-12-04T15:57:31.424Z,28.38
2022-12-04T16:00:06.262Z,27.15
2022-12-04T16:02:44.730Z,27.15
2022-12-04T16:05:32.951Z,27.60
2022-12-04T16:08:25.425Z,28.08
2022-12-04T16:11:08.226Z,29.23
2022-12-04T16:13:40.575Z,27.20
2022-12-04T16:16:17.206Z,28.05
2022-12-04T16:19:00.276Z,27.23
2022-12-04T16:21:50.699Z,26.98
2022-12-04T16:27:25.775Z,26.88
2022-12-04T16:29:56.817Z,27.05
2022-12-04T16:32:37.232Z,26.75
2022-12-04T16:35:23.983Z,26.10
2022-12-04T16:37:56.810Z,26.05
2022-12-04T16:40:34.603Z,24.60
2022-12-04T16:43:09.461Z,24.75
2022-12-04T16:45:47.668Z,24.17
2022-12-04T16:48:22.313Z,24.63
2022-12-04T16:50:59.382Z,23.98
2022-12-04T16:53:35.962Z,25.35
2022-12-04T16:56:17.308Z,25.25
2022-12-04T16:59:02.009Z,26.08
2022-12-04T17:01:49.095Z,24.48
2022-12-04T17:04:27.491Z,24.25
2022-12-04T17:07:05.640Z,23.65
2022-12-04T17:09:47.607Z,23.63
2022-12-04T17:12:25.490Z,22.92
2022-12-04T17:17:43.912Z,23.13
2022-12-04T17:20:27.292Z,23.50
2022-12-04T17:23:10.456Z,21.90
2022-12-04T17:26:04.053Z,21.70
2022-12-04T17:28:47.017Z,21.60
2022-12-04T17:31:51.796Z,21.75
2022-12-04T17:34:32.231Z,22.13
2022-12-04T17:37:20.593Z,23.05
2022-12-04T17:40:04.592Z,23.67
2022-12-04T17:42:42.889Z,24.37
2022-12-04T17:45:35.551Z,25.92
2022-12-04T17:48:08.229Z,27.42
2022-12-04T17:50:42.577Z,26.88
2022-12-04T17:53:20.685Z,26.48
2022-12-04T17:55:51.745Z,26.90
2022-12-04T17:58:22.461Z,28.63
2022-12-04T18:00:57.595Z,29.92
2022-12-04T18:03:27.096Z,29.13
2022-12-04T18:05:57.260Z,30.00
2022-12-04T18:08:30.609Z,29.88
2022-12-04T18:11:07.239Z,29.20
2022-12-04T18:13:37.566Z,28.27
2022-12-04T18:16:15.928Z,28.10
2022-12-04T18:18:50.877Z,29.15
2022-12-04T18:21:20.715Z,28.83
2022-12-04T18:23:51.981Z,28.67
2022-12-04T18:26:23.660Z,28.33
2022-12-04T18:28:55.879Z,28.08
2022-12-04T18:31:26.540Z,29.52
2022-12-04T18:33:55.949Z,28.50
2022-12-04T18:36:27.774Z,28.63
2022-12-04T18:38:59.997Z,28.80
2022-12-04T18:41:31.414Z,28.00
2022-12-04T18:44:08.834Z,30.23
2022-12-04T18:46:45.978Z,29.48
2022-12-04T18:49:17.538Z,30.52
2022-12-04T18:51:50.489Z,29.85
2022-12-04T18:54:27.618Z,30.27
2022-12-04T18:56:57.841Z,29.13
2022-12-04T18:59:36.473Z,28.42
2022-12-04T19:02:09.174Z,29.23
2022-12-04T19:04:42.425Z,30.95
2022-12-04T19:07:13.187Z,28.42
2022-12-04T19:12:37.481Z,28.65
2022-12-04T19:15:13.422Z,28.63
2022-12-04T19:17:49.489Z,25.73
2022-12-04T19:20:21.540Z,28.02
2022-12-04T19:22:54.593Z,27.67
2022-12-04T19:25:24.800Z,28.63
2022-12-04T19:27:59.948Z,28.00
2022-12-04T19:30:35.462Z,26.58
2022-12-04T19:33:49.122Z,27.88
2022-12-04T19:36:38.766Z,27.92
2022-12-04T19:39:54.025Z,26.65
2022-12-04T19:43:02.806Z,25.52
2022-12-04T19:49:04.502Z,27.45
2022-12-04T19:52:03.323Z,43.63
2022-12-04T19:55:18.463Z,32.58
2022-12-04T19:59:02.429Z,26.08
2022-12-04T20:02:24.945Z,26.83
2022-12-04T20:05:09.430Z,24.60
2022-12-04T20:10:50.642Z,24.70
2022-12-04T20:14:01.500Z,25.98
2022-12-04T20:16:49.253Z,25.13
2022-12-04T20:22:40.808Z,25.38
2022-12-04T20:25:37.531Z,25.30
2022-12-04T20:28:23.008Z,27.00
2022-12-04T20:31:34.589Z,26.60
2022-12-04T20:34:49.571Z,26.77
2022-12-04T20:37:32.261Z,25.83
2022-12-04T20:40:33.685Z,26.83
2022-12-04T20:43:46.709Z,28.83
2022-12-04T20:46:37.506Z,24.63
2022-12-04T20:49:21.654Z,26.33
2022-12-04T20:52:04.821Z,25.83
2022-12-04T20:54:41.909Z,25.73
2022-12-04T20:57:12.552Z,25.63
2022-12-04T20:59:42.007Z,26.20
2022-12-04T21:02:14.003Z,25.23
2022-12-04T21:04:43.224Z,24.75
2022-12-04T21:07:12.821Z,25.48
2022-12-04T21:09:42.199Z,26.45
2022-12-04T21:12:37.397Z,23.95
2022-12-04T21:15:29.202Z,24.52
2022-12-04T21:18:02.453Z,25.17
2022-12-04T21:20:45.042Z,25.20
2022-12-04T21:23:14.741Z,25.63
2022-12-04T21:25:44.528Z,25.75
2022-12-04T21:28:14.669Z,24.52
2022-12-04T21:30:43.564Z,25.52
2022-12-04T21:33:17.041Z,26.83
2022-12-04T21:35:49.017Z,25.55
2022-12-04T21:38:18.291Z,25.52
2022-12-04T21:40:53.434Z,23.67
2022-12-04T21:43:26.789Z,24.92
2022-12-04T21:46:07.445Z,25.73
2022-12-04T21:48:40.233Z,24.42
2022-12-04T21:51:26.840Z,25.30
2022-12-04T21:53:59.769Z,24.73
2022-12-04T21:56:28.802Z,24.98
2022-12-04T21:58:58.291Z,25.25
2022-12-04T22:01:29.095Z,25.67
2022-12-04T22:04:00.736Z,26.38
2022-12-04T22:06:31.103Z,25.42
2022-12-04T22:09:00.839Z,24.48
2022-12-04T22:11:29.884Z,24.60
2022-12-04T22:13:59.074Z,25.55
2022-12-04T22:16:30.958Z,24.73
2022-12-04T22:19:01.645Z,24.88
2022-12-04T22:21:31.093Z,25.52
2022-12-04T22:24:02.004Z,23.17
2022-12-04T22:26:33.240Z,24.35
2022-12-04T22:29:20.710Z,23.95
2022-12-04T22:31:54.024Z,24.98
2022-12-04T22:34:24.499Z,23.90
2022-12-04T22:36:53.499Z,25.27
2022-12-04T22:39:22.679Z,23.50
2022-12-04T22:41:51.694Z,23.88
2022-12-04T22:44:21.396Z,24.95
2022-12-04T22:46:50.453Z,24.23
2022-12-04T22:49:18.908Z,23.80
2022-12-04T22:51:50.832Z,24.90
2022-12-04T22:54:19.591Z,24.33
2022-12-04T22:56:48.317Z,22.60
2022-12-04T22:59:18.421Z,23.63
2022-12-04T23:01:47.852Z,24.15
2022-12-04T23:04:16.445Z,23.30
2022-12-04T23:06:44.991Z,23.17
2022-12-04T23:09:18.623Z,23.60
2022-12-04T23:11:52.697Z,23.95
2022-12-04T23:14:22.169Z,23.80
2022-12-04T23:16:51.060Z,23.55
2022-12-04T23:19:20.903Z,23.58
2022-12-04T23:21:57.032Z,23.80
2022-12-04T23:24:28.296Z,23.52
2022-12-04T23:26:58.391Z,23.65
2022-12-04T23:29:52.315Z,24.35
2022-12-04T23:32:16.996Z,23.13
2022-12-04T23:34:46.009Z,23.45
2022-12-04T23:37:14.645Z,23.20
2022-12-04T23:39:46.684Z,23.15
2022-12-04T23:42:15.669Z,23.33
2022-12-04T23:44:44.794Z,23.10
2022-12-04T23:47:13.513Z,24.60
2022-12-04T23:49:42.197Z,23.20
2022-12-04T23:52:12.181Z,23.27
2022-12-04T23:54:41.105Z,23.80
2022-12-04T23:57:12.005Z,23.40
2022-12-04T23:59:41.992Z,23.58
